sensor_id;sensor_type;location;lat;lon;timestamp;P1;durP1;ratioP1;P2;durP2;ratioP2
21046;SDS011;10682;50.874;3.656;2022-07-06T00:01:01;7.10;;;2.90;;
21046;SDS011;10682;50.874;3.656;2022-07-06T00:03:28;3.60;;;2.83;;
21046;SDS011;10682;50.874;3.656;2022-07-06T00:05:55;7.07;;;3.37;;
21046;SDS011;10682;50.874;3.656;2022-07-06T00:08:23;4.60;;;3.27;;
21046;SDS011;10682;50.874;3.656;2022-07-06T00:10:51;6.73;;;3.10;;
21046;SDS011;10682;50.874;3.656;2022-07-06T00:13:18;5.83;;;3.13;;
21046;SDS011;10682;50.874;3.656;2022-07-06T00:15:45;4.43;;;2.80;;
21046;SDS011;10682;50.874;3.656;2022-07-06T00:18:12;7.53;;;3.27;;
21046;SDS011;10682;50.874;3.656;2022-07-06T00:20:39;6.90;;;3.17;;
21046;SDS011;10682;50.874;3.656;2022-07-06T00:23:06;6.03;;;2.93;;
21046;SDS011;10682;50.874;3.656;2022-07-06T00:25:33;8.70;;;3.43;;
21046;SDS011;10682;50.874;3.656;2022-07-06T00:28:00;4.63;;;2.93;;
21046;SDS011;10682;50.874;3.656;2022-07-06T00:30:28;5.57;;;3.10;;
21046;SDS011;10682;50.874;3.656;2022-07-06T00:32:55;5.27;;;3.70;;
21046;SDS011;10682;50.874;3.656;2022-07-06T00:35:24;6.53;;;3.23;;
21046;SDS011;10682;50.874;3.656;2022-07-06T00:37:52;6.93;;;3.50;;
21046;SDS011;10682;50.874;3.656;2022-07-06T00:40:19;4.77;;;3.23;;
21046;SDS011;10682;50.874;3.656;2022-07-06T00:42:47;5.23;;;3.87;;
21046;SDS011;10682;50.874;3.656;2022-07-06T00:45:16;7.33;;;3.53;;
21046;SDS011;10682;50.874;3.656;2022-07-06T00:47:44;6.97;;;2.93;;
21046;SDS011;10682;50.874;3.656;2022-07-06T00:50:13;4.03;;;3.10;;
21046;SDS011;10682;50.874;3.656;2022-07-06T00:52:52;5.47;;;3.20;;
21046;SDS011;10682;50.874;3.656;2022-07-06T00:55:27;3.83;;;2.90;;
21046;SDS011;10682;50.874;3.656;2022-07-06T00:57:57;5.07;;;3.23;;
21046;SDS011;10682;50.874;3.656;2022-07-06T01:00:30;6.13;;;3.20;;
21046;SDS011;10682;50.874;3.656;2022-07-06T01:02:58;5.27;;;3.90;;
21046;SDS011;10682;50.874;3.656;2022-07-06T01:05:26;10.47;;;4.43;;
21046;SDS011;10682;50.874;3.656;2022-07-06T01:07:53;6.90;;;3.97;;
21046;SDS011;10682;50.874;3.656;2022-07-06T01:10:21;6.60;;;3.90;;
21046;SDS011;10682;50.874;3.656;2022-07-06T01:12:48;7.27;;;3.97;;
21046;SDS011;10682;50.874;3.656;2022-07-06T01:15:17;6.60;;;4.10;;
21046;SDS011;10682;50.874;3.656;2022-07-06T01:17:48;5.10;;;3.30;;
21046;SDS011;10682;50.874;3.656;2022-07-06T01:20:19;8.07;;;3.47;;
21046;SDS011;10682;50.874;3.656;2022-07-06T01:22:50;5.73;;;3.73;;
21046;SDS011;10682;50.874;3.656;2022-07-06T01:25:20;5.03;;;3.47;;
21046;SDS011;10682;50.874;3.656;2022-07-06T01:27:47;5.57;;;3.63;;
21046;SDS011;10682;50.874;3.656;2022-07-06T01:30:15;5.83;;;3.40;;
21046;SDS011;10682;50.874;3.656;2022-07-06T01:32:44;7.30;;;3.40;;
21046;SDS011;10682;50.874;3.656;2022-07-06T01:35:13;4.77;;;3.53;;
21046;SDS011;10682;50.874;3.656;2022-07-06T01:37:41;6.33;;;3.00;;
21046;SDS011;10682;50.874;3.656;2022-07-06T01:40:09;5.33;;;2.93;;
21046;SDS011;10682;50.874;3.656;2022-07-06T01:42:37;4.47;;;2.80;;
21046;SDS011;10682;50.874;3.656;2022-07-06T01:45:05;4.67;;;2.90;;
21046;SDS011;10682;50.874;3.656;2022-07-06T01:47:34;6.17;;;3.13;;
21046;SDS011;10682;50.874;3.656;2022-07-06T01:50:01;6.10;;;3.50;;
21046;SDS011;10682;50.874;3.656;2022-07-06T01:52:33;4.73;;;3.30;;
21046;SDS011;10682;50.874;3.656;2022-07-06T01:55:01;4.87;;;3.10;;
21046;SDS011;10682;50.874;3.656;2022-07-06T01:57:29;6.03;;;3.30;;
21046;SDS011;10682;50.874;3.656;2022-07-06T01:59:56;7.53;;;3.53;;
21046;SDS011;10682;50.874;3.656;2022-07-06T02:02:23;5.37;;;3.30;;
21046;SDS011;10682;50.874;3.656;2022-07-06T02:04:50;6.17;;;3.00;;
21046;SDS011;10682;50.874;3.656;2022-07-06T02:07:17;5.23;;;3.10;;
21046;SDS011;10682;50.874;3.656;2022-07-06T02:09:43;8.13;;;3.53;;
21046;SDS011;10682;50.874;3.656;2022-07-06T02:12:10;5.07;;;3.40;;
21046;SDS011;10682;50.874;3.656;2022-07-06T02:14:37;4.63;;;3.30;;
21046;SDS011;10682;50.874;3.656;2022-07-06T02:17:04;4.47;;;3.30;;
21046;SDS011;10682;50.874;3.656;2022-07-06T02:19:32;6.23;;;3.80;;
21046;SDS011;10682;50.874;3.656;2022-07-06T02:21:58;5.77;;;4.00;;
21046;SDS011;10682;50.874;3.656;2022-07-06T02:24:25;4.07;;;3.53;;
21046;SDS011;10682;50.874;3.656;2022-07-06T02:26:53;6.20;;;4.00;;
21046;SDS011;10682;50.874;3.656;2022-07-06T02:29:19;6.67;;;3.47;;
21046;SDS011;10682;50.874;3.656;2022-07-06T02:31:47;7.17;;;3.53;;
21046;SDS011;10682;50.874;3.656;2022-07-06T02:34:14;6.13;;;3.50;;
21046;SDS011;10682;50.874;3.656;2022-07-06T02:36:41;8.30;;;3.70;;
21046;SDS011;10682;50.874;3.656;2022-07-06T02:39:08;8.37;;;3.50;;
21046;SDS011;10682;50.874;3.656;2022-07-06T02:41:35;6.10;;;3.43;;
21046;SDS011;10682;50.874;3.656;2022-07-06T02:44:02;7.53;;;3.70;;
21046;SDS011;10682;50.874;3.656;2022-07-06T02:46:30;6.13;;;3.40;;
21046;SDS011;10682;50.874;3.656;2022-07-06T02:48:57;8.43;;;3.30;;
21046;SDS011;10682;50.874;3.656;2022-07-06T02:51:23;6.80;;;3.40;;
21046;SDS011;10682;50.874;3.656;2022-07-06T02:53:51;6.63;;;3.67;;
21046;SDS011;10682;50.874;3.656;2022-07-06T02:56:18;8.03;;;4.00;;
21046;SDS011;10682;50.874;3.656;2022-07-06T02:58:44;5.53;;;3.90;;
21046;SDS011;10682;50.874;3.656;2022-07-06T03:01:12;7.00;;;3.93;;
21046;SDS011;10682;50.874;3.656;2022-07-06T03:03:39;6.33;;;4.07;;
21046;SDS011;10682;50.874;3.656;2022-07-06T03:06:06;7.67;;;4.20;;
21046;SDS011;10682;50.874;3.656;2022-07-06T03:08:33;5.73;;;4.00;;
21046;SDS011;10682;50.874;3.656;2022-07-06T03:11:00;5.07;;;3.70;;
21046;SDS011;10682;50.874;3.656;2022-07-06T03:13:27;6.43;;;3.70;;
21046;SDS011;10682;50.874;3.656;2022-07-06T03:15:55;4.63;;;3.67;;
21046;SDS011;10682;50.874;3.656;2022-07-06T03:18:22;5.17;;;3.40;;
21046;SDS011;10682;50.874;3.656;2022-07-06T03:20:50;7.10;;;4.17;;
21046;SDS011;10682;50.874;3.656;2022-07-06T03:23:17;6.63;;;4.50;;
21046;SDS011;10682;50.874;3.656;2022-07-06T03:25:44;5.60;;;4.00;;
21046;SDS011;10682;50.874;3.656;2022-07-06T03:28:11;7.57;;;3.80;;
21046;SDS011;10682;50.874;3.656;2022-07-06T03:30:38;7.13;;;4.40;;
21046;SDS011;10682;50.874;3.656;2022-07-06T03:33:05;6.03;;;3.87;;
21046;SDS011;10682;50.874;3.656;2022-07-06T03:35:32;7.07;;;4.27;;
21046;SDS011;10682;50.874;3.656;2022-07-06T03:37:59;5.20;;;3.97;;
21046;SDS011;10682;50.874;3.656;2022-07-06T03:40:26;6.30;;;4.03;;
21046;SDS011;10682;50.874;3.656;2022-07-06T03:42:53;9.00;;;4.23;;
21046;SDS011;10682;50.874;3.656;2022-07-06T03:45:20;9.53;;;4.27;;
21046;SDS011;10682;50.874;3.656;2022-07-06T03:47:47;7.70;;;4.30;;
21046;SDS011;10682;50.874;3.656;2022-07-06T03:50:14;7.57;;;4.30;;
21046;SDS011;10682;50.874;3.656;2022-07-06T03:52:41;4.30;;;2.83;;
21046;SDS011;10682;50.874;3.656;2022-07-06T03:55:09;8.33;;;3.80;;
21046;SDS011;10682;50.874;3.656;2022-07-06T03:57:38;4.17;;;3.47;;
21046;SDS011;10682;50.874;3.656;2022-07-06T04:00:07;7.03;;;3.73;;
21046;SDS011;10682;50.874;3.656;2022-07-06T04:02:36;7.37;;;3.93;;
21046;SDS011;10682;50.874;3.656;2022-07-06T04:05:03;5.03;;;3.67;;
21046;SDS011;10682;50.874;3.656;2022-07-06T04:07:31;7.90;;;4.57;;
21046;SDS011;10682;50.874;3.656;2022-07-06T04:09:58;9.50;;;4.40;;
21046;SDS011;10682;50.874;3.656;2022-07-06T04:12:25;8.97;;;4.50;;
21046;SDS011;10682;50.874;3.656;2022-07-06T04:14:52;7.33;;;4.60;;
21046;SDS011;10682;50.874;3.656;2022-07-06T04:17:23;8.80;;;4.40;;
21046;SDS011;10682;50.874;3.656;2022-07-06T04:20:09;9.43;;;4.33;;
21046;SDS011;10682;50.874;3.656;2022-07-06T04:22:37;7.73;;;5.10;;
21046;SDS011;10682;50.874;3.656;2022-07-06T04:25:05;8.63;;;4.60;;
21046;SDS011;10682;50.874;3.656;2022-07-06T04:27:32;8.00;;;4.60;;
21046;SDS011;10682;50.874;3.656;2022-07-06T04:29:59;7.30;;;4.50;;
21046;SDS011;10682;50.874;3.656;2022-07-06T04:32:27;7.60;;;4.80;;
21046;SDS011;10682;50.874;3.656;2022-07-06T04:34:54;8.97;;;4.80;;
21046;SDS011;10682;50.874;3.656;2022-07-06T04:37:21;9.23;;;5.23;;
21046;SDS011;10682;50.874;3.656;2022-07-06T04:39:48;9.43;;;4.23;;
21046;SDS011;10682;50.874;3.656;2022-07-06T04:42:15;9.13;;;5.30;;
21046;SDS011;10682;50.874;3.656;2022-07-06T04:44:42;11.47;;;5.50;;
21046;SDS011;10682;50.874;3.656;2022-07-06T04:47:10;9.17;;;5.63;;
21046;SDS011;10682;50.874;3.656;2022-07-06T04:49:38;13.83;;;6.60;;
21046;SDS011;10682;50.874;3.656;2022-07-06T04:52:05;9.30;;;6.40;;
21046;SDS011;10682;50.874;3.656;2022-07-06T04:54:33;9.17;;;5.33;;
21046;SDS011;10682;50.874;3.656;2022-07-06T04:57:00;11.50;;;6.90;;
21046;SDS011;10682;50.874;3.656;2022-07-06T04:59:27;14.13;;;8.20;;
21046;SDS011;10682;50.874;3.656;2022-07-06T05:01:54;16.10;;;8.40;;
21046;SDS011;10682;50.874;3.656;2022-07-06T05:04:21;15.50;;;7.87;;
21046;SDS011;10682;50.874;3.656;2022-07-06T05:06:50;14.67;;;7.27;;
21046;SDS011;10682;50.874;3.656;2022-07-06T05:09:17;11.53;;;6.60;;
21046;SDS011;10682;50.874;3.656;2022-07-06T05:11:44;16.43;;;8.10;;
21046;SDS011;10682;50.874;3.656;2022-07-06T05:14:11;22.10;;;8.03;;
21046;SDS011;10682;50.874;3.656;2022-07-06T05:16:38;14.80;;;8.07;;
21046;SDS011;10682;50.874;3.656;2022-07-06T05:19:05;12.10;;;7.40;;
21046;SDS011;10682;50.874;3.656;2022-07-06T05:21:32;10.93;;;7.37;;
21046;SDS011;10682;50.874;3.656;2022-07-06T05:23:59;13.87;;;6.87;;
21046;SDS011;10682;50.874;3.656;2022-07-06T05:26:26;8.70;;;5.77;;
21046;SDS011;10682;50.874;3.656;2022-07-06T05:28:54;10.23;;;5.43;;
21046;SDS011;10682;50.874;3.656;2022-07-06T05:31:21;13.63;;;6.57;;
21046;SDS011;10682;50.874;3.656;2022-07-06T05:33:48;11.47;;;6.53;;
21046;SDS011;10682;50.874;3.656;2022-07-06T05:36:15;11.50;;;7.37;;
21046;SDS011;10682;50.874;3.656;2022-07-06T05:38:42;13.17;;;6.93;;
21046;SDS011;10682;50.874;3.656;2022-07-06T05:41:09;18.10;;;7.47;;
21046;SDS011;10682;50.874;3.656;2022-07-06T05:43:36;13.63;;;7.40;;
21046;SDS011;10682;50.874;3.656;2022-07-06T05:46:04;17.77;;;7.10;;
21046;SDS011;10682;50.874;3.656;2022-07-06T05:48:31;19.30;;;7.43;;
21046;SDS011;10682;50.874;3.656;2022-07-06T05:51:16;16.00;;;7.30;;
21046;SDS011;10682;50.874;3.656;2022-07-06T05:53:43;13.63;;;7.90;;
21046;SDS011;10682;50.874;3.656;2022-07-06T05:56:10;12.53;;;7.87;;
21046;SDS011;10682;50.874;3.656;2022-07-06T05:58:37;17.70;;;7.97;;
21046;SDS011;10682;50.874;3.656;2022-07-06T06:01:04;12.02;;;7.03;;
21046;SDS011;10682;50.874;3.656;2022-07-06T06:03:33;12.85;;;7.70;;
21046;SDS011;10682;50.874;3.656;2022-07-06T06:06:00;15.68;;;7.13;;
21046;SDS011;10682;50.874;3.656;2022-07-06T06:08:27;15.13;;;8.10;;
21046;SDS011;10682;50.874;3.656;2022-07-06T06:10:54;14.18;;;7.88;;
21046;SDS011;10682;50.874;3.656;2022-07-06T06:13:21;15.82;;;7.53;;
21046;SDS011;10682;50.874;3.656;2022-07-06T06:15:49;16.75;;;7.72;;
21046;SDS011;10682;50.874;3.656;2022-07-06T06:18:16;13.77;;;7.30;;
21046;SDS011;10682;50.874;3.656;2022-07-06T06:20:45;12.40;;;7.30;;
21046;SDS011;10682;50.874;3.656;2022-07-06T06:23:13;15.00;;;7.93;;
21046;SDS011;10682;50.874;3.656;2022-07-06T06:25:40;17.55;;;6.85;;
21046;SDS011;10682;50.874;3.656;2022-07-06T06:28:08;14.32;;;7.45;;
21046;SDS011;10682;50.874;3.656;2022-07-06T06:30:37;16.98;;;7.28;;
21046;SDS011;10682;50.874;3.656;2022-07-06T06:33:08;18.58;;;7.38;;
21046;SDS011;10682;50.874;3.656;2022-07-06T06:35:43;11.60;;;6.72;;
21046;SDS011;10682;50.874;3.656;2022-07-06T06:38:13;14.63;;;6.50;;
21046;SDS011;10682;50.874;3.656;2022-07-06T06:40:41;12.50;;;6.75;;
21046;SDS011;10682;50.874;3.656;2022-07-06T06:43:09;14.85;;;7.32;;
21046;SDS011;10682;50.874;3.656;2022-07-06T06:45:36;13.93;;;7.32;;
21046;SDS011;10682;50.874;3.656;2022-07-06T06:48:03;13.25;;;7.05;;
21046;SDS011;10682;50.874;3.656;2022-07-06T06:50:30;14.68;;;7.35;;
21046;SDS011;10682;50.874;3.656;2022-07-06T06:52:57;15.00;;;7.55;;
21046;SDS011;10682;50.874;3.656;2022-07-06T06:55:25;11.07;;;7.30;;
21046;SDS011;10682;50.874;3.656;2022-07-06T06:57:52;20.58;;;7.93;;
21046;SDS011;10682;50.874;3.656;2022-07-06T07:00:19;11.95;;;7.38;;
21046;SDS011;10682;50.874;3.656;2022-07-06T07:02:46;18.27;;;8.32;;
21046;SDS011;10682;50.874;3.656;2022-07-06T07:05:13;15.90;;;8.07;;
21046;SDS011;10682;50.874;3.656;2022-07-06T07:07:40;12.43;;;6.55;;
21046;SDS011;10682;50.874;3.656;2022-07-06T07:10:07;15.38;;;6.97;;
21046;SDS011;10682;50.874;3.656;2022-07-06T07:12:35;15.55;;;7.85;;
21046;SDS011;10682;50.874;3.656;2022-07-06T07:15:09;12.15;;;6.55;;
21046;SDS011;10682;50.874;3.656;2022-07-06T07:17:36;14.73;;;7.43;;
21046;SDS011;10682;50.874;3.656;2022-07-06T07:20:04;13.55;;;6.43;;
21046;SDS011;10682;50.874;3.656;2022-07-06T07:22:32;13.40;;;6.70;;
21046;SDS011;10682;50.874;3.656;2022-07-06T07:24:59;15.57;;;6.03;;
21046;SDS011;10682;50.874;3.656;2022-07-06T07:27:26;15.02;;;6.97;;
21046;SDS011;10682;50.874;3.656;2022-07-06T07:29:53;13.18;;;6.13;;
21046;SDS011;10682;50.874;3.656;2022-07-06T07:32:20;17.25;;;6.45;;
21046;SDS011;10682;50.874;3.656;2022-07-06T07:34:47;14.05;;;6.28;;
21046;SDS011;10682;50.874;3.656;2022-07-06T07:37:14;14.15;;;6.60;;
21046;SDS011;10682;50.874;3.656;2022-07-06T07:39:41;10.93;;;5.93;;
21046;SDS011;10682;50.874;3.656;2022-07-06T07:42:08;15.00;;;6.00;;
21046;SDS011;10682;50.874;3.656;2022-07-06T07:44:42;12.57;;;6.00;;
21046;SDS011;10682;50.874;3.656;2022-07-06T07:47:09;9.55;;;4.75;;
21046;SDS011;10682;50.874;3.656;2022-07-06T07:49:36;8.88;;;5.20;;
21046;SDS011;10682;50.874;3.656;2022-07-06T07:52:03;13.07;;;4.93;;
21046;SDS011;10682;50.874;3.656;2022-07-06T07:54:32;13.60;;;5.13;;
21046;SDS011;10682;50.874;3.656;2022-07-06T07:56:59;15.88;;;4.90;;
21046;SDS011;10682;50.874;3.656;2022-07-06T07:59:26;7.32;;;4.03;;
21046;SDS011;10682;50.874;3.656;2022-07-06T08:01:53;10.93;;;4.53;;
21046;SDS011;10682;50.874;3.656;2022-07-06T08:04:21;14.23;;;6.70;;
21046;SDS011;10682;50.874;3.656;2022-07-06T08:06:48;11.77;;;4.85;;
21046;SDS011;10682;50.874;3.656;2022-07-06T08:09:15;10.25;;;3.90;;
21046;SDS011;10682;50.874;3.656;2022-07-06T08:11:43;9.20;;;4.63;;
21046;SDS011;10682;50.874;3.656;2022-07-06T08:14:10;7.50;;;4.47;;
21046;SDS011;10682;50.874;3.656;2022-07-06T08:16:37;13.43;;;5.90;;
21046;SDS011;10682;50.874;3.656;2022-07-06T08:19:05;12.43;;;4.57;;
21046;SDS011;10682;50.874;3.656;2022-07-06T08:21:36;11.38;;;4.82;;
21046;SDS011;10682;50.874;3.656;2022-07-06T08:24:03;7.05;;;3.42;;
21046;SDS011;10682;50.874;3.656;2022-07-06T08:26:30;9.57;;;4.35;;
21046;SDS011;10682;50.874;3.656;2022-07-06T08:28:58;8.25;;;3.67;;
21046;SDS011;10682;50.874;3.656;2022-07-06T08:31:25;9.27;;;3.47;;
21046;SDS011;10682;50.874;3.656;2022-07-06T08:34:13;11.75;;;3.92;;
21046;SDS011;10682;50.874;3.656;2022-07-06T08:36:40;7.07;;;3.42;;
21046;SDS011;10682;50.874;3.656;2022-07-06T08:39:07;7.32;;;3.95;;
21046;SDS011;10682;50.874;3.656;2022-07-06T08:41:34;10.13;;;4.50;;
21046;SDS011;10682;50.874;3.656;2022-07-06T08:44:04;6.32;;;4.63;;
21046;SDS011;10682;50.874;3.656;2022-07-06T08:46:34;9.18;;;5.38;;
21046;SDS011;10682;50.874;3.656;2022-07-06T08:49:06;13.68;;;4.63;;
21046;SDS011;10682;50.874;3.656;2022-07-06T08:51:34;9.73;;;4.72;;
21046;SDS011;10682;50.874;3.656;2022-07-06T08:54:02;9.73;;;4.72;;
21046;SDS011;10682;50.874;3.656;2022-07-06T08:56:30;8.40;;;4.55;;
21046;SDS011;10682;50.874;3.656;2022-07-06T08:58:58;7.00;;;4.20;;
21046;SDS011;10682;50.874;3.656;2022-07-06T09:01:26;9.50;;;3.92;;
21046;SDS011;10682;50.874;3.656;2022-07-06T09:03:54;8.55;;;3.47;;
21046;SDS011;10682;50.874;3.656;2022-07-06T09:06:26;7.15;;;4.00;;
21046;SDS011;10682;50.874;3.656;2022-07-06T09:08:54;11.65;;;4.03;;
21046;SDS011;10682;50.874;3.656;2022-07-06T09:11:23;12.82;;;2.95;;
21046;SDS011;10682;50.874;3.656;2022-07-06T09:13:53;10.77;;;3.42;;
21046;SDS011;10682;50.874;3.656;2022-07-06T09:16:27;7.20;;;2.92;;
21046;SDS011;10682;50.874;3.656;2022-07-06T09:19:06;8.50;;;3.38;;
21046;SDS011;10682;50.874;3.656;2022-07-06T09:21:34;9.75;;;3.25;;
21046;SDS011;10682;50.874;3.656;2022-07-06T09:24:09;10.15;;;3.60;;
21046;SDS011;10682;50.874;3.656;2022-07-06T09:26:39;7.88;;;3.08;;
21046;SDS011;10682;50.874;3.656;2022-07-06T09:29:07;6.22;;;2.78;;
21046;SDS011;10682;50.874;3.656;2022-07-06T09:31:35;8.05;;;3.08;;
21046;SDS011;10682;50.874;3.656;2022-07-06T09:34:06;11.73;;;2.97;;
21046;SDS011;10682;50.874;3.656;2022-07-06T09:39:21;9.00;;;2.78;;
21046;SDS011;10682;50.874;3.656;2022-07-06T09:41:56;8.55;;;2.95;;
21046;SDS011;10682;50.874;3.656;2022-07-06T09:44:29;11.02;;;2.88;;
21046;SDS011;10682;50.874;3.656;2022-07-06T09:47:06;7.93;;;2.33;;
21046;SDS011;10682;50.874;3.656;2022-07-06T09:49:37;5.10;;;2.72;;
21046;SDS011;10682;50.874;3.656;2022-07-06T09:52:08;6.40;;;2.67;;
21046;SDS011;10682;50.874;3.656;2022-07-06T09:54:37;8.82;;;3.17;;
21046;SDS011;10682;50.874;3.656;2022-07-06T09:57:05;6.95;;;2.90;;
21046;SDS011;10682;50.874;3.656;2022-07-06T09:59:35;10.90;;;3.08;;
21046;SDS011;10682;50.874;3.656;2022-07-06T10:02:07;8.88;;;2.88;;
21046;SDS011;10682;50.874;3.656;2022-07-06T10:04:35;6.85;;;2.58;;
21046;SDS011;10682;50.874;3.656;2022-07-06T10:07:02;8.82;;;2.90;;
21046;SDS011;10682;50.874;3.656;2022-07-06T10:09:33;8.15;;;2.90;;
21046;SDS011;10682;50.874;3.656;2022-07-06T10:12:01;8.60;;;2.90;;
21046;SDS011;10682;50.874;3.656;2022-07-06T10:14:30;9.43;;;3.55;;
21046;SDS011;10682;50.874;3.656;2022-07-06T10:17:00;8.73;;;3.47;;
21046;SDS011;10682;50.874;3.656;2022-07-06T10:19:33;7.82;;;2.90;;
21046;SDS011;10682;50.874;3.656;2022-07-06T10:22:01;8.43;;;3.10;;
21046;SDS011;10682;50.874;3.656;2022-07-06T10:24:30;8.45;;;3.40;;
21046;SDS011;10682;50.874;3.656;2022-07-06T10:27:00;7.43;;;3.58;;
21046;SDS011;10682;50.874;3.656;2022-07-06T10:29:28;8.13;;;3.17;;
21046;SDS011;10682;50.874;3.656;2022-07-06T10:31:58;7.30;;;3.38;;
21046;SDS011;10682;50.874;3.656;2022-07-06T10:34:25;9.43;;;3.90;;
21046;SDS011;10682;50.874;3.656;2022-07-06T10:36:53;11.30;;;3.47;;
21046;SDS011;10682;50.874;3.656;2022-07-06T10:39:33;10.15;;;3.53;;
21046;SDS011;10682;50.874;3.656;2022-07-06T10:42:45;6.20;;;3.40;;
21046;SDS011;10682;50.874;3.656;2022-07-06T10:50:39;7.85;;;4.07;;
21046;SDS011;10682;50.874;3.656;2022-07-06T10:53:15;10.73;;;3.63;;
21046;SDS011;10682;50.874;3.656;2022-07-06T10:55:51;7.47;;;3.35;;
21046;SDS011;10682;50.874;3.656;2022-07-06T10:58:40;15.75;;;3.45;;
21046;SDS011;10682;50.874;3.656;2022-07-06T11:01:21;9.95;;;3.53;;
21046;SDS011;10682;50.874;3.656;2022-07-06T11:03:51;8.43;;;3.13;;
21046;SDS011;10682;50.874;3.656;2022-07-06T11:06:38;8.30;;;3.20;;
21046;SDS011;10682;50.874;3.656;2022-07-06T11:09:09;8.80;;;3.30;;
21046;SDS011;10682;50.874;3.656;2022-07-06T11:11:41;10.93;;;4.13;;
21046;SDS011;10682;50.874;3.656;2022-07-06T11:14:11;8.98;;;3.47;;
21046;SDS011;10682;50.874;3.656;2022-07-06T11:19:14;8.88;;;3.05;;
21046;SDS011;10682;50.874;3.656;2022-07-06T11:21:52;10.52;;;3.15;;
21046;SDS011;10682;50.874;3.656;2022-07-06T11:24:30;8.05;;;3.10;;
21046;SDS011;10682;50.874;3.656;2022-07-06T11:27:00;9.65;;;3.30;;
21046;SDS011;10682;50.874;3.656;2022-07-06T11:29:31;8.75;;;3.00;;
21046;SDS011;10682;50.874;3.656;2022-07-06T11:31:59;9.18;;;3.78;;
21046;SDS011;10682;50.874;3.656;2022-07-06T11:34:31;9.13;;;2.60;;
21046;SDS011;10682;50.874;3.656;2022-07-06T11:37:13;10.75;;;2.75;;
21046;SDS011;10682;50.874;3.656;2022-07-06T11:39:42;7.28;;;2.75;;
21046;SDS011;10682;50.874;3.656;2022-07-06T11:42:10;5.15;;;2.20;;
21046;SDS011;10682;50.874;3.656;2022-07-06T11:44:40;9.65;;;2.50;;
21046;SDS011;10682;50.874;3.656;2022-07-06T11:47:08;6.63;;;2.95;;
21046;SDS011;10682;50.874;3.656;2022-07-06T11:49:37;13.68;;;3.15;;
21046;SDS011;10682;50.874;3.656;2022-07-06T11:52:06;8.52;;;2.90;;
21046;SDS011;10682;50.874;3.656;2022-07-06T11:54:42;11.57;;;2.97;;
21046;SDS011;10682;50.874;3.656;2022-07-06T11:57:10;5.53;;;2.53;;
21046;SDS011;10682;50.874;3.656;2022-07-06T11:59:39;11.13;;;2.67;;
21046;SDS011;10682;50.874;3.656;2022-07-06T12:02:09;5.68;;;2.38;;
21046;SDS011;10682;50.874;3.656;2022-07-06T12:04:39;4.40;;;2.33;;
21046;SDS011;10682;50.874;3.656;2022-07-06T12:07:12;8.38;;;2.40;;
21046;SDS011;10682;50.874;3.656;2022-07-06T12:09:42;6.80;;;2.42;;
21046;SDS011;10682;50.874;3.656;2022-07-06T12:12:13;9.00;;;2.50;;
21046;SDS011;10682;50.874;3.656;2022-07-06T12:14:42;8.40;;;2.70;;
21046;SDS011;10682;50.874;3.656;2022-07-06T12:17:10;6.63;;;2.28;;
21046;SDS011;10682;50.874;3.656;2022-07-06T12:19:41;10.38;;;2.50;;
21046;SDS011;10682;50.874;3.656;2022-07-06T12:22:09;10.35;;;2.20;;
21046;SDS011;10682;50.874;3.656;2022-07-06T12:24:37;6.15;;;2.58;;
21046;SDS011;10682;50.874;3.656;2022-07-06T12:27:17;10.20;;;2.30;;
21046;SDS011;10682;50.874;3.656;2022-07-06T12:29:45;3.85;;;1.95;;
21046;SDS011;10682;50.874;3.656;2022-07-06T12:32:15;6.18;;;2.20;;
21046;SDS011;10682;50.874;3.656;2022-07-06T12:35:05;6.65;;;1.85;;
21046;SDS011;10682;50.874;3.656;2022-07-06T12:37:35;8.20;;;2.35;;
21046;SDS011;10682;50.874;3.656;2022-07-06T12:40:02;8.88;;;2.38;;
21046;SDS011;10682;50.874;3.656;2022-07-06T12:42:46;9.82;;;2.30;;
21046;SDS011;10682;50.874;3.656;2022-07-06T12:45:14;12.75;;;2.60;;
21046;SDS011;10682;50.874;3.656;2022-07-06T12:47:48;8.60;;;2.75;;
21046;SDS011;10682;50.874;3.656;2022-07-06T12:53:04;5.90;;;2.80;;
21046;SDS011;10682;50.874;3.656;2022-07-06T12:55:32;4.93;;;2.13;;
21046;SDS011;10682;50.874;3.656;2022-07-06T12:57:59;8.50;;;2.78;;
21046;SDS011;10682;50.874;3.656;2022-07-06T13:00:26;6.50;;;2.58;;
21046;SDS011;10682;50.874;3.656;2022-07-06T13:02:53;4.47;;;2.20;;
21046;SDS011;10682;50.874;3.656;2022-07-06T13:05:36;6.43;;;2.50;;
21046;SDS011;10682;50.874;3.656;2022-07-06T13:08:05;8.15;;;2.88;;
21046;SDS011;10682;50.874;3.656;2022-07-06T13:10:33;10.40;;;2.85;;
21046;SDS011;10682;50.874;3.656;2022-07-06T13:13:02;6.70;;;2.67;;
21046;SDS011;10682;50.874;3.656;2022-07-06T13:15:29;8.38;;;3.05;;
21046;SDS011;10682;50.874;3.656;2022-07-06T13:17:56;7.82;;;3.20;;
21046;SDS011;10682;50.874;3.656;2022-07-06T13:20:23;5.38;;;2.33;;
21046;SDS011;10682;50.874;3.656;2022-07-06T13:22:50;7.32;;;2.72;;
21046;SDS011;10682;50.874;3.656;2022-07-06T13:25:17;7.78;;;3.40;;
21046;SDS011;10682;50.874;3.656;2022-07-06T13:27:44;5.85;;;3.45;;
21046;SDS011;10682;50.874;3.656;2022-07-06T13:30:11;8.98;;;3.58;;
21046;SDS011;10682;50.874;3.656;2022-07-06T13:32:38;8.82;;;3.65;;
21046;SDS011;10682;50.874;3.656;2022-07-06T13:35:06;8.30;;;3.30;;
21046;SDS011;10682;50.874;3.656;2022-07-06T13:37:33;7.65;;;3.30;;
21046;SDS011;10682;50.874;3.656;2022-07-06T13:40:00;12.30;;;3.97;;
21046;SDS011;10682;50.874;3.656;2022-07-06T13:42:29;10.20;;;4.30;;
21046;SDS011;10682;50.874;3.656;2022-07-06T13:44:56;11.73;;;4.63;;
21046;SDS011;10682;50.874;3.656;2022-07-06T13:47:23;9.43;;;4.07;;
21046;SDS011;10682;50.874;3.656;2022-07-06T13:49:50;11.07;;;3.88;;
21046;SDS011;10682;50.874;3.656;2022-07-06T13:52:17;9.80;;;3.65;;
21046;SDS011;10682;50.874;3.656;2022-07-06T13:54:44;10.32;;;4.13;;
21046;SDS011;10682;50.874;3.656;2022-07-06T13:57:11;9.23;;;4.30;;
21046;SDS011;10682;50.874;3.656;2022-07-06T13:59:38;9.75;;;4.60;;
21046;SDS011;10682;50.874;3.656;2022-07-06T14:02:06;10.30;;;3.75;;
21046;SDS011;10682;50.874;3.656;2022-07-06T14:04:33;11.30;;;4.80;;
21046;SDS011;10682;50.874;3.656;2022-07-06T14:07:00;12.20;;;5.82;;
21046;SDS011;10682;50.874;3.656;2022-07-06T14:09:28;15.77;;;5.28;;
21046;SDS011;10682;50.874;3.656;2022-07-06T14:11:55;13.05;;;5.43;;
21046;SDS011;10682;50.874;3.656;2022-07-06T14:14:23;11.65;;;4.82;;
21046;SDS011;10682;50.874;3.656;2022-07-06T14:16:50;10.98;;;4.22;;
21046;SDS011;10682;50.874;3.656;2022-07-06T14:19:17;8.23;;;3.40;;
21046;SDS011;10682;50.874;3.656;2022-07-06T14:21:48;9.02;;;3.70;;
21046;SDS011;10682;50.874;3.656;2022-07-06T14:24:15;9.93;;;3.30;;
21046;SDS011;10682;50.874;3.656;2022-07-06T14:26:42;10.05;;;3.97;;
21046;SDS011;10682;50.874;3.656;2022-07-06T14:29:09;6.75;;;4.22;;
21046;SDS011;10682;50.874;3.656;2022-07-06T14:31:36;6.50;;;3.25;;
21046;SDS011;10682;50.874;3.656;2022-07-06T14:34:03;8.80;;;3.95;;
21046;SDS011;10682;50.874;3.656;2022-07-06T14:36:31;8.13;;;3.60;;
21046;SDS011;10682;50.874;3.656;2022-07-06T14:38:59;10.80;;;3.08;;
21046;SDS011;10682;50.874;3.656;2022-07-06T14:41:26;7.80;;;3.20;;
21046;SDS011;10682;50.874;3.656;2022-07-06T14:43:53;7.63;;;3.60;;
21046;SDS011;10682;50.874;3.656;2022-07-06T14:46:20;7.72;;;2.90;;
21046;SDS011;10682;50.874;3.656;2022-07-06T14:48:48;9.38;;;4.05;;
21046;SDS011;10682;50.874;3.656;2022-07-06T14:51:15;7.55;;;3.60;;
21046;SDS011;10682;50.874;3.656;2022-07-06T14:53:42;11.13;;;3.65;;
21046;SDS011;10682;50.874;3.656;2022-07-06T14:56:09;11.27;;;3.78;;
21046;SDS011;10682;50.874;3.656;2022-07-06T14:58:36;11.85;;;3.85;;
21046;SDS011;10682;50.874;3.656;2022-07-06T15:01:06;6.30;;;3.70;;
21046;SDS011;10682;50.874;3.656;2022-07-06T15:03:33;9.75;;;4.80;;
21046;SDS011;10682;50.874;3.656;2022-07-06T15:06:00;15.80;;;4.53;;